00:56 Bike Schwaz - Kundl
Ort Schwaz Datum 07.09.2010 07:09:28
Kategorie MTB
Distanz 26,81 Kilometer Steigung 25,2 Meter Gefälle -30,7 Meter
Gesamt Zeit 00:55:52 Aktiv 00:55:52 Pause 00:00:00
Durchs. Tempo 28,8 km/h Tempo max. 40,6 km/h Tempo min. 16,3 km/h
Kalorien 0 Durchs. HF 160 BPM HF max. 175 BPM
Wetter 20 °C PartClouds
Ausrüstung Specialized - Stumpjumper Comp
Specialized - BG S-Works MTB
Shimano - HG-93 XT
SwissStop - Disc17 Avid Juicy
Schwalbe - Racing Ralph hinten
Schwalbe - Nobby Nic vorne
Notiz Schwaz - Kundl ... windstill, muede, nass ... garmin connect
Splits
Distanz (km) Gesamt Zeit Split Zeit Split Tempo Split Tempo Höhenprofil (m)
1,00 00:02:29 00:02:29 00:02:29 24,2 5,00
2,00 00:04:28 00:01:59 00:01:59 30,3 -0,04
3,00 00:06:30 00:02:02 00:02:02 29,5 -0,15
4,00 00:09:01 00:02:31 00:02:31 23,8 3,43
5,00 00:10:44 00:01:43 00:01:43 35,0 -13,25
6,00 00:13:02 00:02:18 00:02:18 26,1 11,63
7,00 00:15:25 00:02:23 00:02:23 25,2 14,14
8,00 00:17:38 00:02:13 00:02:13 27,1 -33,28
9,00 00:19:38 00:02:00 00:02:00 30,0 -1,50
10,00 00:21:37 00:01:59 00:01:59 30,3 0,00
11,00 00:23:34 00:01:57 00:01:57 30,8 -0,95
12,00 00:25:35 00:02:01 00:02:01 29,8 0,95
13,00 00:27:48 00:02:13 00:02:13 27,1 0,00
14,00 00:29:56 00:02:08 00:02:08 28,1 -3,69
15,00 00:32:01 00:02:05 00:02:05 28,8 -1,31
16,00 00:34:05 00:02:04 00:02:04 29,0 -0,99
17,00 00:36:12 00:02:07 00:02:07 28,3 -0,97
18,00 00:38:17 00:02:05 00:02:05 28,8 0,97
19,00 00:40:21 00:02:04 00:02:04 29,0 -0,98
20,00 00:42:25 00:02:04 00:02:04 29,0 -2,87
21,00 00:44:16 00:01:51 00:01:51 32,4 -0,15
22,00 00:46:04 00:01:48 00:01:48 33,3 0,00
23,00 00:47:57 00:01:53 00:01:53 31,9 0,00
24,00 00:49:52 00:01:55 00:01:55 31,3 0,00
25,00 00:51:43 00:01:51 00:01:51 32,4 0,00
26,00 00:53:45 00:02:02 00:02:02 29,5 0,00